»·PEaware :: AAL211 KPSP-KLAS

AAL211 :: KPSP-KLAS

FLIGHT INFORMATION

Flight Status: Arrived
Operator:
American Airlines
More flights by this operator :: More flights under this callsign
Pilot: Robert McDonald (1649)
Aircraft: BOEING 737-800
(B738)
More flights by this aircraft type
Origin: KPSP Palm Springs Intl
United States
Destination: KLAS McCarran Intl
United States
More flights between these airports :: More routes between these airports
Route: CATH1 PSP TNP KEPEC4
File this flight plan on PilotEdge
Remarks:
Altitude:
(Current/Filed)
25,000ft
Speed:
(Current/Filed)
450kts
Departed: 08-Jun-17 08:51 PM
Arrived: 08-Jun-17 09:30 PM
Distance/Time
Traveled:
151nm/0:39
Distance/Time
To Go:
Arrived

Flight Plot

Page will automatically refresh every two minutes.

Flight plan parsing failed; only flown route is shown


Map Options




Map Legend


Flown Route
Filed Route
Departure Airport
Arrival Airport
Navaid (VOR, NDB)
Fix

Horizontal Profiles

Position Reports

Time Latitude Longitude Heading Altitude Ground
Speed
08-Jun-17 20:42 33.823828 -116.506542 205 486ft 0kts
08-Jun-17 20:43 33.823828 -116.506542 205 486ft 0kts
08-Jun-17 20:44 33.823828 -116.506542 205 486ft 0kts
08-Jun-17 20:45 33.823828 -116.506542 205 486ft 0kts
08-Jun-17 20:46 33.823828 -116.506542 205 486ft 0kts
08-Jun-17 20:47 33.823828 -116.506542 205 486ft 0kts
08-Jun-17 20:48 33.824349 -116.506385 147 486ft 0kts
08-Jun-17 20:49 33.824348 -116.506384 147 486ft 0kts
08-Jun-17 20:50 33.823891 -116.505995 143 486ft 14kts
08-Jun-17 20:51 33.822340 -116.503088 144 486ft 12kts
08-Jun-17 20:52 33.818603 -116.499657 129 486ft 15kts
08-Jun-17 20:53 33.820872 -116.499876 322 486ft 75kts
08-Jun-17 20:54 33.859220 -116.534006 321 3429ft 208kts
08-Jun-17 20:55 33.909831 -116.523825 74 7269ft 242kts
08-Jun-17 20:56 33.895306 -116.445986 91 10938ft 251kts
08-Jun-17 20:57 33.919809 -116.358854 69 13590ft 307kts
08-Jun-17 20:58 33.954688 -116.254213 69 15891ft 367kts
08-Jun-17 20:59 33.995223 -116.129828 68 17801ft 426kts
08-Jun-17 21:00 34.038949 -115.995880 67 20619ft 444kts
08-Jun-17 21:01 34.072101 -115.893819 67 22357ft 457kts
08-Jun-17 21:02 34.123097 -115.751391 49 24430ft 467kts
08-Jun-17 21:03 34.221235 -115.648966 40 24895ft 470kts
08-Jun-17 21:04 34.317387 -115.541800 32 24905ft 466kts
08-Jun-17 21:05 34.435082 -115.481296 16 24906ft 460kts
08-Jun-17 21:06 34.555620 -115.429368 16 24893ft 461kts
08-Jun-17 21:07 34.675917 -115.376623 16 24874ft 461kts
08-Jun-17 21:08 34.799340 -115.343376 352 24856ft 451kts
08-Jun-17 21:09 34.919039 -115.382615 338 24848ft 445kts
08-Jun-17 21:10 35.031651 -115.427331 338 23985ft 413kts
08-Jun-17 21:11 35.139379 -115.469470 338 21933ft 402kts
08-Jun-17 21:12 35.245259 -115.511043 338 19923ft 394kts
08-Jun-17 21:13 35.348706 -115.551618 338 17927ft 387kts
08-Jun-17 21:14 35.450151 -115.591422 338 16111ft 380kts
08-Jun-17 21:15 35.550134 -115.630622 338 14202ft 375kts
08-Jun-17 21:16 35.645426 -115.667761 340 13302ft 340kts
08-Jun-17 21:17 35.723994 -115.619710 47 13041ft 329kts
08-Jun-17 21:18 35.800570 -115.571712 356 13038ft 316kts
08-Jun-17 21:19 35.888771 -115.567970 357 13034ft 320kts
08-Jun-17 21:20 35.973924 -115.544747 46 12851ft 331kts
08-Jun-17 21:21 36.010861 -115.441125 72 11581ft 330kts
08-Jun-17 21:22 36.030369 -115.337620 103 10594ft 292kts
08-Jun-17 21:23 36.021722 -115.240548 100 9463ft 279kts
08-Jun-17 21:24 36.014642 -115.146538 98 8500ft 270kts
08-Jun-17 21:25 36.008319 -115.057443 100 7200ft 251kts
08-Jun-17 21:26 35.999070 -114.980273 101 5168ft 218kts
08-Jun-17 21:27 36.012577 -114.926808 351 3503ft 169kts
08-Jun-17 21:28 36.058692 -114.943178 308 2988ft 160kts
08-Jun-17 21:29 36.074861 -114.999301 273 2829ft 183kts
08-Jun-17 21:30 36.073899 -115.067278 266 3089ft 214kts
08-Jun-17 21:31 36.073618 -115.127590 268 2139ft 158kts
08-Jun-17 21:32 36.074511 -115.145210 294 2124ft 20kts
08-Jun-17 21:33 36.076800 -115.146504 358 2124ft 0kts
08-Jun-17 21:35 36.077727 -115.141673 24 2124ft 13kts
08-Jun-17 21:35 36.079948 -115.140397 68 2124ft 0kts
08-Jun-17 21:36 36.079948 -115.140397 68 2124ft 0kts
08-Jun-17 21:37 36.079948 -115.140397 68 2124ft 0kts

Navigation Log

Ident Type
Flight plan parsing failed, navigation log unavailable